Time;durP1;ratioP1;P1;durP2;ratioP2;P2;SDS_P1;SDS_P2;PMS_P1;PMS_P2;Temp;Humidity;BMP_temperature;BMP_pressure;BME280_temperature;BME280_humidity;BME280_pressure;Samples;Min_cycle;Max_cycle;Signal;HPM_P1;HPM_P2
2022/04/30 00:00:05;;;;;;;5.20;1.98;;;;;;;5.12;51.28;102847.53;5066583;28;20502;-79
2022/04/30 00:02:40;;;;;;;3.42;2.33;;;;;;;5.08;51.15;102844.03;5050868;28;20053;-80
2022/04/30 00:05:06;;;;;;;4.70;2.42;;;;;;;4.96;51.54;102847.31;5040494;28;20029;-79
2022/04/30 00:07:31;;;;;;;9.90;2.47;;;;;;;4.82;51.92;102846.19;5051122;28;20375;-79
2022/04/30 00:09:57;;;;;;;7.72;2.20;;;;;;;4.97;51.74;102845.59;5040251;28;20056;-79
2022/04/30 00:12:23;;;;;;;2.53;1.67;;;;;;;4.89;51.74;102840.28;5050703;28;20017;-80
2022/04/30 00:14:49;;;;;;;14.15;2.70;;;;;;;4.87;51.94;102839.34;5035915;28;20056;-79
2022/04/30 00:17:15;;;;;;;10.43;2.65;;;;;;;4.84;51.81;102834.13;5057688;28;20040;-80
2022/04/30 00:19:40;;;;;;;8.18;3.28;;;;;;;4.77;52.63;102833.19;5066489;28;20045;-80
2022/04/30 00:22:08;;;;;;;11.15;1.90;;;;;;;4.72;52.45;102840.00;5051169;28;20438;-79
2022/04/30 00:24:35;;;;;;;7.28;2.47;;;;;;;4.77;52.30;102838.34;5040182;28;20033;-79
2022/04/30 00:27:01;;;;;;;4.40;2.25;;;;;;;4.82;52.40;102830.66;5051132;28;20029;-79
2022/04/30 00:29:29;;;;;;;7.18;3.05;;;;;;;4.80;52.42;102832.34;5047777;28;20035;-80
2022/04/30 00:31:55;;;;;;;8.55;2.72;;;;;;;4.75;52.53;102834.88;5052250;28;20037;-80
2022/04/30 00:34:23;;;;;;;6.15;2.65;;;;;;;4.76;52.28;102836.59;5062862;28;20041;-80
2022/04/30 00:36:49;;;;;;;10.93;2.65;;;;;;;4.68;52.68;102822.66;5065624;28;20127;-81
2022/04/30 00:39:15;;;;;;;10.93;3.03;;;;;;;4.56;53.00;102828.50;5035436;28;20043;-80
2022/04/30 00:41:46;;;;;;;10.63;2.85;;;;;;;4.53;53.05;102819.84;5044711;28;20041;-80
2022/04/30 00:44:17;;;;;;;10.73;3.30;;;;;;;4.61;52.52;102823.44;5036472;28;20035;-79
2022/04/30 00:46:46;;;;;;;9.18;2.78;;;;;;;4.42;53.57;102819.66;5049814;28;20037;-80
2022/04/30 00:49:12;;;;;;;8.63;2.95;;;;;;;4.49;53.36;102818.03;5067643;28;20056;-80
2022/04/30 00:51:39;;;;;;;12.90;2.60;;;;;;;4.55;53.11;102810.38;5042156;28;20033;-80
2022/04/30 00:54:06;;;;;;;11.85;3.25;;;;;;;4.56;52.97;102817.28;5067273;28;20044;-80
2022/04/30 00:56:57;;;;;;;5.32;3.03;;;;;;;4.46;53.46;102807.63;5041638;28;20048;-79
2022/04/30 00:59:24;;;;;;;8.95;3.65;;;;;;;4.47;53.27;102812.81;5060492;28;20120;-80
2022/04/30 01:01:59;;;;;;;;;;;;;;;4.54;53.31;102806.91;5067558;28;20048;-80
2022/04/30 01:04:44;;;;;;;7.30;2.78;;;;;;;4.50;52.91;102802.53;5063095;28;20004;-81
2022/04/30 01:07:09;;;;;;;8.43;2.80;;;;;;;4.52;52.97;102805.13;5066983;28;20052;-81
2022/04/30 01:09:45;;;;;;;7.43;3.10;;;;;;;4.49;53.42;102797.31;5033513;28;20036;-81
2022/04/30 01:12:13;;;;;;;10.18;4.35;;;;;;;4.41;53.47;102798.06;5051950;28;20017;-80
2022/04/30 01:14:42;;;;;;;11.75;4.13;;;;;;;4.48;53.21;102803.34;5066155;28;20120;-80
2022/04/30 01:17:10;;;;;;;11.52;4.72;;;;;;;4.43;53.55;102796.38;5050840;28;20029;-80
2022/04/30 01:19:37;;;;;;;12.18;4.78;;;;;;;4.42;53.65;102794.63;5066757;28;20037;-80
2022/04/30 01:22:26;;;;;;;12.60;4.60;;;;;;;4.53;53.55;102791.34;5053083;28;20530;-80
2022/04/30 01:24:58;;;;;;;10.10;3.28;;;;;;;4.56;53.33;102787.06;5073411;28;20037;-81
2022/04/30 01:27:28;;;;;;;10.70;4.05;;;;;;;4.38;53.82;102786.78;5067685;28;20047;-81
2022/04/30 01:29:55;;;;;;;7.00;3.65;;;;;;;4.49;53.65;102787.81;5066277;28;20376;-82
2022/04/30 01:38:24;;;;;;;7.40;4.47;;;;;;;4.50;53.69;102780.91;5028100;28;20513;-80
2022/04/30 01:40:50;;;;;;;10.27;3.75;;;;;;;4.53;53.60;102781.84;4998306;28;20049;-82
2022/04/30 01:43:16;;;;;;;10.70;3.53;;;;;;;4.28;54.74;102771.97;5022787;28;20036;-81
2022/04/30 01:45:45;;;;;;;6.68;3.70;;;;;;;4.43;54.07;102773.06;5050207;28;20391;-80
2022/04/30 01:48:14;;;;;;;10.88;3.38;;;;;;;4.46;53.83;102768.78;5066298;28;20387;-78
2022/04/30 01:50:43;;;;;;;13.98;3.92;;;;;;;4.43;54.42;102770.47;5045752;28;20236;-79
2022/04/30 01:53:10;;;;;;;8.55;4.53;;;;;;;4.46;54.04;102773.97;5049206;28;20128;-80
2022/04/30 01:55:36;;;;;;;9.38;2.85;;;;;;;4.37;54.32;102770.38;5066205;28;20556;-79
2022/04/30 01:58:07;;;;;;;5.83;2.50;;;;;;;4.45;54.07;102761.84;5041111;28;20036;-79
2022/04/30 02:00:33;;;;;;;8.10;3.85;;;;;;;4.56;54.16;102760.31;5065573;28;20033;-80
2022/04/30 02:03:05;;;;;;;7.70;3.35;;;;;;;4.52;54.16;102761.09;5066377;28;20036;-79
2022/04/30 02:05:31;;;;;;;9.35;4.22;;;;;;;4.50;54.04;102761.09;5065280;28;20033;-81
2022/04/30 02:08:06;;;;;;;8.55;4.22;;;;;;;4.54;54.07;102762.91;5049671;28;20047;-80
2022/04/30 02:10:35;;;;;;;14.77;5.20;;;;;;;4.48;54.04;102759.34;5052729;28;20047;-80
2022/04/30 02:13:01;;;;;;;7.75;4.32;;;;;;;4.56;53.92;102758.56;5072779;28;20047;-79
2022/04/30 02:15:29;;;;;;;9.50;4.90;;;;;;;4.54;53.75;102757.72;5066259;28;20065;-81
2022/04/30 02:17:56;;;;;;;6.57;4.35;;;;;;;4.55;53.90;102749.09;5066462;28;20037;-79
2022/04/30 02:20:27;;;;;;;9.70;3.83;;;;;;;4.63;53.86;102752.66;5062322;28;20032;-79
2022/04/30 02:22:55;;;;;;;7.47;2.97;;;;;;;4.66;53.43;102745.78;5063319;28;20585;-80
2022/04/30 02:25:22;;;;;;;7.82;4.35;;;;;;;4.61;53.62;102750.91;5035017;28;20280;-80
2022/04/30 02:27:51;;;;;;;8.73;3.70;;;;;;;4.62;53.78;102744.88;5066660;28;20029;-80
2022/04/30 02:30:18;;;;;;;9.20;4.10;;;;;;;4.66;53.55;102749.25;5065334;28;20041;-79
2022/04/30 02:32:46;;;;;;;12.18;4.90;;;;;;;4.60;53.64;102738.78;5067446;28;20053;-79
2022/04/30 02:35:20;;;;;;;9.63;4.32;;;;;;;4.57;53.85;102743.94;5069172;28;20067;-79
2022/04/30 02:37:49;;;;;;;13.13;5.03;;;;;;;4.40;54.04;102739.34;5067936;28;20429;-80
2022/04/30 02:40:16;;;;;;;11.50;4.25;;;;;;;4.57;53.65;102746.53;5055946;28;20133;-78
2022/04/30 02:42:41;;;;;;;17.45;4.50;;;;;;;4.56;53.55;102737.84;5073560;28;20224;-80
2022/04/30 02:45:11;;;;;;;10.43;4.22;;;;;;;4.39;54.22;102736.75;5052155;28;20068;-81
2022/04/30 02:47:38;;;;;;;11.95;4.70;;;;;;;4.41;54.35;102737.66;5052442;28;20025;-81
2022/04/30 02:50:08;;;;;;;9.73;4.20;;;;;;;4.37;54.61;102726.38;5058588;28;20036;-82
2022/04/30 02:52:35;;;;;;;19.98;5.53;;;;;;;4.56;54.08;102739.59;5070581;28;20017;-81
2022/04/30 02:55:00;;;;;;;11.80;4.72;;;;;;;4.57;53.87;102741.34;5068179;28;20071;-82
2022/04/30 02:59:53;;;;;;;10.68;3.97;;;;;;;4.55;54.08;102738.72;5069550;28;20025;-82
2022/04/30 03:00:40;;;;;;;8.05;3.97;;;;;;;4.62;53.54;102729.31;5031739;28;20036;-81
2022/04/30 03:03:34;;;;;;;12.77;3.83;;;;;;;4.49;54.20;102727.41;5050257;28;20178;-78
2022/04/30 03:06:01;;;;;;;11.13;4.35;;;;;;;4.58;54.10;102727.53;5068340;28;20553;-79
2022/04/30 03:08:27;;;;;;;7.03;4.50;;;;;;;4.55;53.84;102718.00;5070240;28;20536;-80
2022/04/30 03:10:56;;;;;;;9.02;4.97;;;;;;;4.55;54.06;102722.31;5068413;28;20037;-79
2022/04/30 03:13:24;;;;;;;10.45;4.13;;;;;;;4.51;54.13;102725.72;5066324;28;20048;-81
2022/04/30 03:15:51;;;;;;;12.25;5.50;;;;;;;4.58;53.96;102712.00;5077564;28;20029;-80
2022/04/30 03:23:36;;;;;;;9.00;4.78;;;;;;;4.71;53.33;102713.03;5070801;28;20037;-82
2022/04/30 03:26:05;;;;;;;9.52;4.10;;;;;;;4.69;53.29;102710.44;5084851;28;20041;-81
2022/04/30 03:28:32;;;;;;;21.58;5.80;;;;;;;4.64;53.23;102701.72;5060591;28;20025;-80
2022/04/30 03:30:58;;;;;;;14.60;5.40;;;;;;;4.67;53.36;102706.94;5063526;28;20041;-80
2022/04/30 03:33:26;;;;;;;13.50;5.95;;;;;;;4.58;53.42;102696.44;5074578;28;20519;-83
2022/04/30 03:35:55;;;;;;;7.45;5.07;;;;;;;4.55;53.63;102701.59;5074136;28;20060;-80
2022/04/30 03:38:21;;;;;;;8.40;5.13;;;;;;;4.54;53.86;102700.75;5071891;28;20040;-80
2022/04/30 03:40:46;;;;;;;9.25;4.85;;;;;;;4.61;53.43;102704.28;5071607;28;20049;-82
2022/04/30 03:43:14;;;;;;;10.10;5.82;;;;;;;4.62;53.38;102700.84;5054603;28;20041;-80
2022/04/30 03:45:41;;;;;;;10.88;6.45;;;;;;;4.54;53.56;102699.84;5072558;28;20049;-81
2022/04/30 03:48:09;;;;;;;10.10;5.13;;;;;;;4.47;53.97;102698.88;5056995;28;20056;-82
2022/04/30 03:50:35;;;;;;;14.23;5.13;;;;;;;4.48;53.74;102695.47;5072503;28;20040;-82
2022/04/30 03:53:01;;;;;;;7.95;4.82;;;;;;;4.40;54.08;102699.66;5072299;28;20499;-81
2022/04/30 03:55:27;;;;;;;10.23;5.40;;;;;;;4.50;53.79;102696.34;5072033;28;20036;-82
2022/04/30 03:58:00;;;;;;;10.20;5.72;;;;;;;4.48;53.98;102695.47;5043756;28;20522;-81
2022/04/30 04:00:26;;;;;;;9.70;4.45;;;;;;;4.49;53.80;102697.19;5065802;28;20045;-81
2022/04/30 04:02:56;;;;;;;9.27;4.95;;;;;;;4.46;53.60;102696.28;5070248;28;20036;-80
2022/04/30 04:05:28;;;;;;;10.13;5.25;;;;;;;4.45;53.63;102695.41;5055063;28;20047;-81
2022/04/30 04:07:57;;;;;;;9.27;4.20;;;;;;;4.43;54.00;102692.81;5078422;28;20032;-81
2022/04/30 04:10:26;;;;;;;12.25;4.10;;;;;;;4.49;53.69;102697.19;5052517;28;20131;-80
2022/04/30 04:12:52;;;;;;;6.63;3.70;;;;;;;4.54;53.58;102699.84;5060861;28;20037;-80
2022/04/30 04:18:05;;;;;;;13.25;5.18;;;;;;;4.68;53.21;102697.47;5068325;28;20100;-80
2022/04/30 04:20:31;;;;;;;7.90;4.80;;;;;;;4.79;53.51;102706.25;5035622;28;20067;-82
2022/04/30 04:22:57;;;;;;;12.63;4.68;;;;;;;4.88;53.41;102698.63;5069892;28;20044;-78
2022/04/30 04:28:07;;;;;;;7.07;4.00;;;;;;;5.09;53.02;102698.03;5068354;28;20021;-81
2022/04/30 04:30:33;;;;;;;11.20;4.60;;;;;;;5.20;53.00;102699.03;5063692;28;20114;-81
2022/04/30 04:32:59;;;;;;;9.50;5.05;;;;;;;5.47;52.95;102700.19;5054670;28;20033;-80
2022/04/30 04:35:26;;;;;;;6.75;4.15;;;;;;;5.74;52.69;102703.91;5070194;28;20507;-81
2022/04/30 04:37:51;;;;;;;7.78;3.95;;;;;;;5.91;52.15;102699.75;5072192;28;20032;-82
2022/04/30 04:40:18;;;;;;;13.90;4.38;;;;;;;6.20;52.04;102706.91;5069744;28;20073;-81
2022/04/30 04:42:45;;;;;;;10.68;3.78;;;;;;;6.50;51.28;102704.53;5078874;28;20075;-81
2022/04/30 04:45:11;;;;;;;7.43;5.10;;;;;;;6.68;50.31;102706.38;5041324;28;20041;-82
2022/04/30 04:47:40;;;;;;;6.93;4.13;;;;;;;6.83;50.17;102705.59;5064018;28;20128;-82
2022/04/30 04:50:08;;;;;;;6.30;4.35;;;;;;;6.86;50.48;102705.63;5066507;28;20216;-81
2022/04/30 04:52:35;;;;;;;6.80;4.18;;;;;;;6.96;50.02;102706.53;5067115;28;20013;-82
2022/04/30 04:55:00;;;;;;;6.60;3.50;;;;;;;7.08;49.80;102709.19;5048645;28;20128;-82
2022/04/30 04:57:29;;;;;;;8.52;4.22;;;;;;;7.20;49.12;102713.56;5047332;28;20049;-81
2022/04/30 05:00:11;;;;;;;9.32;3.60;;;;;;;7.31;48.69;102714.47;5065189;28;20047;-81
2022/04/30 05:02:37;;;;;;;4.00;2.70;;;;;;;7.68;49.26;102717.19;5067800;28;20041;-80
2022/04/30 05:05:03;;;;;;;5.50;3.55;;;;;;;7.97;48.25;102721.56;5050970;28;20057;-80
2022/04/30 05:07:31;;;;;;;5.93;3.78;;;;;;;8.10;47.75;102715.47;5035383;28;20028;-80
2022/04/30 05:10:00;;;;;;;7.22;3.65;;;;;;;8.33;47.67;102718.06;5046877;28;20056;-81
2022/04/30 05:12:26;;;;;;;8.07;3.38;;;;;;;8.68;45.29;102726.72;5066953;28;20040;-81
2022/04/30 05:14:53;;;;;;;7.00;3.63;;;;;;;8.87;44.80;102727.53;5049100;28;20153;-81
2022/04/30 05:17:19;;;;;;;8.30;3.58;;;;;;;9.02;44.99;102721.41;5049994;28;20037;-81
2022/04/30 05:19:44;;;;;;;6.57;2.65;;;;;;;9.64;44.62;102719.34;5053031;28;20421;-81
2022/04/30 05:22:10;;;;;;;7.55;3.60;;;;;;;9.60;41.42;102721.97;5046083;28;20056;-80
2022/04/30 05:24:36;;;;;;;12.88;3.38;;;;;;;10.06;40.56;102715.56;5048658;28;20032;-80
2022/04/30 05:27:04;;;;;;;6.53;3.47;;;;;;;9.74;42.17;102714.03;5066154;28;20060;-80
2022/04/30 05:29:29;;;;;;;6.55;3.30;;;;;;;9.44;41.74;102719.47;5064003;28;20115;-80
2022/04/30 05:32:03;;;;;;;5.00;3.03;;;;;;;9.11;42.05;102716.16;5064989;28;20116;-81
2022/04/30 05:34:32;;;;;;;6.22;3.97;;;;;;;9.20;42.68;102716.09;5061255;28;20060;-80
2022/04/30 05:37:00;;;;;;;4.75;2.63;;;;;;;9.10;42.51;102715.28;5066087;28;20145;-80
2022/04/30 05:39:26;;;;;;;6.70;3.50;;;;;;;9.72;42.55;102718.41;5061226;28;20029;-80
2022/04/30 05:41:52;;;;;;;5.80;3.22;;;;;;;10.00;42.21;102708.66;5064377;28;20033;-80
2022/04/30 05:44:17;;;;;;;3.80;2.95;;;;;;;10.58;39.32;102709.84;5066041;28;20029;-80
2022/04/30 05:46:49;;;;;;;4.68;2.67;;;;;;;11.71;39.89;102711.91;5064504;28;20445;-80
2022/04/30 05:49:17;;;;;;;6.93;3.78;;;;;;;13.44;35.01;102710.38;5050310;28;20032;-81
2022/04/30 05:51:43;;;;;;;5.65;2.83;;;;;;;15.25;31.81;102709.16;5039275;28;20044;-82
2022/04/30 05:54:19;;;;;;;5.30;2.60;;;;;;;17.38;29.56;102711.34;5064959;28;20033;-82
2022/04/30 05:56:51;;;;;;;6.40;3.10;;;;;;;17.93;29.43;102714.41;5047988;28;20041;-82
2022/04/30 05:59:18;;;;;;;5.18;1.98;;;;;;;17.32;28.46;102720.41;5064351;28;20057;-81
2022/04/30 06:01:46;;;;;;;5.15;1.63;;;;;;;15.99;31.27;102719.06;5056166;28;20064;-79
2022/04/30 06:04:12;;;;;;;3.97;1.77;;;;;;;16.27;29.42;102726.03;5047474;28;20066;-78
2022/04/30 06:06:38;;;;;;;4.57;2.35;;;;;;;16.07;30.36;102720.59;5051350;28;20503;-78
2022/04/30 06:09:03;;;;;;;6.80;2.17;;;;;;;17.50;28.84;102718.00;5069752;28;20097;-81
2022/04/30 06:11:29;;;;;;;3.83;2.50;;;;;;;17.35;28.10;102716.78;5068454;28;20051;-80
2022/04/30 06:13:55;;;;;;;4.90;3.03;;;;;;;16.01;28.94;102716.38;5068369;28;20391;-81
2022/04/30 06:16:20;;;;;;;6.22;1.77;;;;;;;13.37;32.76;102721.91;5066454;28;20052;-80
2022/04/30 06:18:50;;;;;;;6.55;1.95;;;;;;;12.96;33.26;102728.03;5059574;28;20606;-81
2022/04/30 06:21:15;;;;;;;5.35;2.05;;;;;;;11.88;35.54;102730.84;5047778;28;20522;-79
2022/04/30 06:23:41;;;;;;;5.20;2.40;;;;;;;12.68;36.17;102736.44;5067922;28;20029;-81
2022/04/30 06:26:08;;;;;;;3.35;2.50;;;;;;;12.10;35.58;102733.13;5051573;28;20033;-78
2022/04/30 06:28:37;;;;;;;8.60;2.55;;;;;;;11.38;36.88;102732.44;5051422;28;20031;-80
2022/04/30 06:31:02;;;;;;;4.00;1.95;;;;;;;10.88;39.25;102728.69;5034354;28;20033;-80
2022/04/30 06:33:28;;;;;;;3.53;1.70;;;;;;;12.31;36.59;102734.50;5069577;28;20043;-80
2022/04/30 06:35:53;;;;;;;4.38;1.80;;;;;;;15.19;30.22;102720.69;5050233;28;20045;-80
2022/04/30 06:38:19;;;;;;;3.55;1.75;;;;;;;17.12;27.35;102729.13;5066463;28;20052;-79
2022/04/30 06:40:46;;;;;;;2.38;0.77;;;;;;;17.70;24.80;102720.69;5054970;28;20621;-80
2022/04/30 06:43:12;;;;;;;5.53;1.75;;;;;;;18.30;24.28;102723.47;5069058;28;20029;-81
2022/04/30 06:45:37;;;;;;;3.13;1.25;;;;;;;18.82;23.48;102718.47;5068843;28;20394;-80
2022/04/30 06:48:03;;;;;;;2.05;1.27;;;;;;;16.66;25.72;102724.66;5069298;28;20553;-83
2022/04/30 06:50:29;;;;;;;4.53;1.95;;;;;;;14.47;29.02;102735.91;5045159;28;20198;-81
2022/04/30 06:58:24;;;;;;;5.40;1.42;;;;;;;12.47;33.26;102741.22;5063177;28;20021;-80
2022/04/30 07:03:27;;;;;;;1.65;1.00;;;;;;;12.08;34.05;102732.28;5045257;28;20071;-80
2022/04/30 07:06:03;;;;;;;3.72;1.48;;;;;;;11.38;35.56;102729.81;5029616;28;20037;-80
2022/04/30 07:08:33;;;;;;;2.47;1.13;;;;;;;10.70;36.43;102734.13;5027281;28;20033;-81
2022/04/30 07:11:00;;;;;;;2.42;0.98;;;;;;;10.48;37.14;102733.47;5046677;28;20421;-80
2022/04/30 07:13:26;;;;;;;3.67;1.35;;;;;;;10.69;36.17;102729.78;5064527;28;20513;-79
2022/04/30 07:15:51;;;;;;;7.25;1.33;;;;;;;10.67;36.13;102735.03;5029770;28;20048;-81
2022/04/30 07:18:17;;;;;;;3.28;0.85;;;;;;;12.84;33.22;102731.78;5064309;28;20028;-80
2022/04/30 07:20:42;;;;;;;2.10;0.75;;;;;;;15.45;28.20;102727.81;5033737;28;20466;-81
2022/04/30 07:23:08;;;;;;;3.88;1.13;;;;;;;16.76;26.30;102724.31;5063481;28;20035;-79
2022/04/30 07:25:34;;;;;;;1.52;0.85;;;;;;;15.29;29.16;102732.72;5043926;28;20106;-80
2022/04/30 07:27:59;;;;;;;2.33;0.93;;;;;;;16.92;25.40;102731.66;5031108;28;20037;-80
2022/04/30 07:30:28;;;;;;;5.60;1.00;;;;;;;18.63;23.21;102722.88;5048428;28;20049;-79
2022/04/30 07:32:53;;;;;;;2.28;0.80;;;;;;;19.84;22.09;102722.47;5031806;28;20523;-81
2022/04/30 07:35:19;;;;;;;2.65;1.10;;;;;;;17.40;24.82;102735.94;5061982;28;20033;-80
2022/04/30 07:37:44;;;;;;;3.00;1.02;;;;;;;14.83;28.52;102735.81;5033740;28;20861;-80
2022/04/30 07:40:11;;;;;;;4.13;1.05;;;;;;;17.35;25.67;102730.00;5030509;28;20075;-80
2022/04/30 07:42:36;;;;;;;3.60;0.88;;;;;;;17.83;24.64;102727.19;5029779;28;20021;-79
2022/04/30 07:45:02;;;;;;;5.28;1.40;;;;;;;15.16;27.42;102732.19;5043435;28;20110;-81
2022/04/30 07:47:29;;;;;;;2.17;1.20;;;;;;;12.76;31.15;102733.69;5029304;28;20509;-80
2022/04/30 07:49:55;;;;;;;3.35;0.98;;;;;;;12.44;33.05;102737.75;5041755;28;20044;-81
2022/04/30 07:52:21;;;;;;;1.92;0.70;;;;;;;13.07;31.58;102726.94;5060168;28;20387;-80
2022/04/30 07:54:47;;;;;;;4.47;1.63;;;;;;;11.78;33.33;102734.50;5042456;28;20036;-81
2022/04/30 07:57:12;;;;;;;3.75;0.95;;;;;;;11.14;34.14;102730.16;5045903;28;20067;-81
2022/04/30 07:59:38;;;;;;;5.68;1.25;;;;;;;12.21;32.69;102727.69;5030897;28;20024;-82
2022/04/30 08:02:04;;;;;;;1.73;0.85;;;;;;;11.77;32.21;102727.53;5060374;28;20538;-80
2022/04/30 08:04:30;;;;;;;5.35;0.60;;;;;;;12.06;31.42;102734.06;5027175;28;20037;-82
2022/04/30 08:06:56;;;;;;;1.35;0.73;;;;;;;12.13;30.94;102730.44;5047481;28;20089;-79
2022/04/30 08:09:24;;;;;;;3.65;0.88;;;;;;;11.43;32.72;102732.38;5028875;28;20029;-80
2022/04/30 08:11:50;;;;;;;3.13;0.88;;;;;;;12.21;31.91;102732.94;5029382;28;20021;-78
2022/04/30 08:14:15;;;;;;;4.43;0.70;;;;;;;11.76;32.04;102733.63;5079362;28;20040;-81
2022/04/30 08:16:43;;;;;;;4.15;0.98;;;;;;;11.07;33.49;102728.50;5015963;28;20091;-79
2022/04/30 08:21:58;;;;;;;2.85;1.00;;;;;;;16.14;26.96;102722.09;5022392;28;20651;-80
2022/04/30 08:24:24;;;;;;;3.05;0.77;;;;;;;14.44;27.17;102726.34;5026851;28;20033;-79
2022/04/30 08:26:52;;;;;;;2.08;1.05;;;;;;;13.56;29.18;102724.09;5061388;28;20075;-76
2022/04/30 08:29:18;;;;;;;1.30;0.40;;;;;;;12.45;29.73;102726.41;5062450;28;20438;-78
2022/04/30 08:31:44;;;;;;;1.98;0.50;;;;;;;15.06;26.61;102720.22;5027938;28;20098;-79
2022/04/30 08:34:12;;;;;;;1.77;0.50;;;;;;;17.08;23.55;102718.72;5060685;28;22220;-80
2022/04/30 08:36:38;;;;;;;2.40;0.77;;;;;;;16.82;22.78;102716.16;5045558;28;20501;-79
2022/04/30 08:39:07;;;;;;;1.95;0.40;;;;;;;15.34;24.56;102719.41;5062109;28;20033;-80
2022/04/30 08:41:33;;;;;;;2.25;0.50;;;;;;;17.57;23.48;102714.16;5044808;28;20045;-80
2022/04/30 08:43:59;;;;;;;2.72;0.68;;;;;;;17.62;23.48;102712.19;5044823;28;20021;-78
2022/04/30 08:46:27;;;;;;;0.90;0.57;;;;;;;15.41;24.76;102720.06;5061271;28;20045;-79
2022/04/30 08:48:54;;;;;;;4.32;1.15;;;;;;;13.92;27.80;102723.28;5044256;28;20048;-77
2022/04/30 08:51:19;;;;;;;2.42;0.65;;;;;;;13.10;29.41;102724.25;5052966;28;20514;-78
2022/04/30 08:53:45;;;;;;;3.75;0.77;;;;;;;15.08;28.16;102717.50;5046408;28;20043;-81
2022/04/30 08:56:11;;;;;;;6.82;0.80;;;;;;;16.14;25.83;102716.81;5045790;28;20143;-79
2022/04/30 08:58:36;;;;;;;1.67;0.88;;;;;;;17.24;22.96;102714.56;5026759;28;20619;-80
2022/04/30 09:01:04;;;;;;;3.22;0.40;;;;;;;16.04;23.84;102715.41;5029619;28;20097;-81
2022/04/30 09:03:35;;;;;;;2.80;0.88;;;;;;;14.45;27.20;102721.94;5043489;28;20221;-80
2022/04/30 09:06:01;;;;;;;1.20;0.95;;;;;;;13.44;29.56;102722.63;5043226;28;20075;-81
2022/04/30 09:08:27;;;;;;;3.65;1.45;;;;;;;14.08;28.48;102715.88;5041996;28;20063;-80
2022/04/30 09:11:04;;;;;;;7.80;0.70;;;;;;;15.59;27.06;102717.72;5024608;28;20068;-80
2022/04/30 09:13:30;;;;;;;3.00;0.90;;;;;;;16.62;24.96;102711.59;5042944;28;20148;-81
2022/04/30 09:15:57;;;;;;;2.60;0.68;;;;;;;16.31;26.15;102714.47;5023796;28;20064;-79
2022/04/30 09:18:22;;;;;;;1.20;0.50;;;;;;;15.24;26.10;102707.41;5048564;28;20116;-81
2022/04/30 09:20:50;;;;;;;1.45;0.35;;;;;;;15.03;25.63;102712.38;5059085;28;20057;-79
2022/04/30 09:23:29;;;;;;;3.65;1.85;;;;;;;15.08;26.21;102710.50;5044628;28;20510;-82
2022/04/30 09:25:57;;;;;;;2.67;0.70;;;;;;;14.58;27.11;102707.53;5040714;28;20041;-81
2022/04/30 09:28:33;;;;;;;2.55;0.55;;;;;;;14.48;27.56;102711.34;5059236;28;22743;-82
2022/04/30 09:31:14;;;;;;;1.60;0.70;;;;;;;14.28;28.32;102707.44;5043670;28;20104;-81
2022/04/30 09:33:48;;;;;;;3.58;0.65;;;;;;;14.15;28.95;102706.91;5026687;28;20044;-79
2022/04/30 09:38:58;;;;;;;4.35;0.90;;;;;;;15.48;27.67;102701.41;5039953;28;20037;-78
2022/04/30 09:41:26;;;;;;;2.08;0.93;;;;;;;15.27;28.31;102704.69;5025964;28;20041;-77
2022/04/30 09:44:04;;;;;;;3.05;1.10;;;;;;;15.37;28.31;102704.38;5042165;28;20056;-79
2022/04/30 09:46:35;;;;;;;5.15;1.10;;;;;;;14.60;28.33;102715.41;5062662;28;20262;-78
2022/04/30 09:54:29;;;;;;;4.60;0.93;;;;;;;14.94;28.72;102710.03;5062955;28;20511;-76
2022/04/30 09:56:59;;;;;;;5.28;1.15;;;;;;;14.11;29.65;102714.91;5044040;28;20044;-79
2022/04/30 10:03:30;;;;;;;3.60;1.52;;;;;;;13.33;31.56;102707.97;5015948;28;20199;-78
2022/04/30 10:06:00;;;;;;;1.70;0.90;;;;;;;13.66;30.42;102702.03;5013817;28;20546;-76
2022/04/30 10:08:28;;;;;;;4.55;1.13;;;;;;;13.81;29.37;102704.28;5032137;28;20207;-81
2022/04/30 10:11:23;;;;;;;3.15;1.10;;;;;;;14.53;29.32;102698.94;5014076;28;20642;-78
2022/04/30 10:14:26;;;;;;;1.63;1.02;;;;;;;13.96;29.64;102703.00;5040771;28;20032;-79
2022/04/30 10:17:36;;;;;;;6.70;0.80;;;;;;;13.45;29.78;102701.59;5036551;28;20079;-78
2022/04/30 10:19:43;;;;;;;2.40;1.60;;;;;;;12.33;32.21;102710.88;5042785;28;20044;-79
2022/04/30 10:22:17;;;;;;;2.30;1.73;;;;;;;12.61;33.36;102692.88;5050249;28;20267;-77
2022/04/30 10:24:47;;;;;;;3.67;1.05;;;;;;;13.74;30.62;102692.16;5026489;28;20064;-78
2022/04/30 10:27:14;;;;;;;2.17;0.90;;;;;;;13.89;29.67;102690.94;5017026;28;20037;-79
2022/04/30 10:29:59;;;;;;;2.38;1.25;;;;;;;13.68;30.12;102685.31;5051548;28;20052;-79
2022/04/30 10:32:30;;;;;;;3.20;1.45;;;;;;;13.78;30.04;102682.47;5067826;28;20048;-79
2022/04/30 10:34:56;;;;;;;6.10;1.27;;;;;;;14.09;29.04;102678.13;5031068;28;20368;-79
2022/04/30 10:37:33;;;;;;;1.25;0.70;;;;;;;14.36;28.14;102681.78;5020457;28;20102;-79
2022/04/30 10:40:00;;;;;;;2.60;1.10;;;;;;;14.94;27.00;102667.91;5039927;28;20044;-78
2022/04/30 10:42:38;;;;;;;1.52;0.68;;;;;;;14.82;27.61;102666.50;5071282;28;20043;-77
2022/04/30 10:45:16;;;;;;;1.45;0.80;;;;;;;14.98;28.33;102661.63;5036252;28;20605;-80
2022/04/30 10:47:53;;;;;;;5.15;0.90;;;;;;;14.57;27.50;102669.00;5034503;28;20043;-76
2022/04/30 10:50:19;;;;;;;2.58;0.68;;;;;;;14.10;28.64;102668.50;5035654;28;20045;-77
2022/04/30 10:52:49;;;;;;;2.70;1.23;;;;;;;14.61;28.71;102670.59;5038388;28;20017;-77
2022/04/30 10:55:17;;;;;;;2.90;1.35;;;;;;;14.46;28.62;102663.19;5034114;28;20044;-77
2022/04/30 10:57:43;;;;;;;2.90;1.20;;;;;;;13.82;29.23;102657.81;5039874;28;20033;-77
2022/04/30 11:00:10;;;;;;;1.88;0.70;;;;;;;13.00;30.34;102667.56;5052708;28;20041;-78
2022/04/30 11:02:39;;;;;;;2.00;0.80;;;;;;;13.24;29.86;102652.19;5049586;28;20025;-79
2022/04/30 11:05:17;;;;;;;3.78;1.15;;;;;;;13.52;30.17;102658.53;5020884;28;20041;-77
2022/04/30 11:07:43;;;;;;;5.45;1.98;;;;;;;13.37;30.65;102661.50;5026496;28;20032;-77
2022/04/30 11:10:09;;;;;;;2.53;1.42;;;;;;;13.03;31.47;102662.28;5025873;28;20491;-77
2022/04/30 11:12:37;;;;;;;2.90;1.25;;;;;;;13.75;30.43;102665.00;5045986;28;20025;-77
2022/04/30 11:15:03;;;;;;;3.00;0.93;;;;;;;14.55;29.34;102650.59;5057250;28;20079;-78
2022/04/30 11:17:29;;;;;;;4.20;1.48;;;;;;;15.20;28.29;102656.56;5032913;28;20029;-77
2022/04/30 11:19:55;;;;;;;3.70;1.00;;;;;;;15.71;26.95;102657.63;5040542;28;20051;-79
2022/04/30 11:22:22;;;;;;;3.65;1.02;;;;;;;15.52;27.51;102659.97;5042944;28;20033;-79
2022/04/30 11:24:48;;;;;;;3.92;1.13;;;;;;;16.06;26.17;102653.78;5028291;28;20051;-78
2022/04/30 11:27:14;;;;;;;2.53;0.93;;;;;;;15.98;25.81;102658.44;5040590;28;20071;-78
2022/04/30 11:29:55;;;;;;;1.95;1.00;;;;;;;15.10;26.90;102648.13;5039992;28;20068;-78
2022/04/30 11:32:32;;;;;;;8.53;1.47;;;;;;;14.46;28.67;102652.66;5057117;28;20087;-79
2022/04/30 11:35:03;;;;;;;4.13;1.52;;;;;;;14.74;28.77;102640.41;5056344;28;20044;-77
2022/04/30 11:37:40;;;;;;;3.30;1.67;;;;;;;14.23;29.00;102648.88;5043533;28;20445;-79
2022/04/30 11:40:06;;;;;;;3.83;1.83;;;;;;;14.52;29.43;102637.56;5056584;28;20605;-77
2022/04/30 11:42:32;;;;;;;5.05;1.48;;;;;;;15.13;28.60;102636.63;5058644;28;20037;-77
2022/04/30 11:44:57;;;;;;;5.18;1.35;;;;;;;14.94;28.86;102641.56;5024976;28;20051;-78
2022/04/30 11:47:22;;;;;;;3.45;1.65;;;;;;;14.87;28.83;102645.31;5030170;28;20119;-77
2022/04/30 11:49:48;;;;;;;3.80;1.85;;;;;;;14.69;28.25;102634.41;5023930;28;20037;-78
2022/04/30 11:52:14;;;;;;;3.10;1.10;;;;;;;14.91;28.54;102637.28;5045210;28;20021;-79
2022/04/30 11:54:41;;;;;;;4.07;0.98;;;;;;;14.05;28.69;102638.81;5026113;28;20075;-79
2022/04/30 11:57:08;;;;;;;6.22;1.48;;;;;;;14.27;30.17;102641.72;5028125;28;20098;-80
2022/04/30 11:59:36;;;;;;;3.35;1.48;;;;;;;13.98;30.22;102632.00;5046732;28;20043;-80
2022/04/30 12:02:14;;;;;;;6.97;2.15;;;;;;;13.85;30.41;102637.59;5056856;28;20059;-77
2022/04/30 12:04:41;;;;;;;3.42;1.38;;;;;;;13.29;31.92;102638.06;5037339;28;20041;-78
2022/04/30 12:07:07;;;;;;;2.38;1.73;;;;;;;13.52;31.56;102634.03;5059475;28;20029;-77
2022/04/30 12:09:37;;;;;;;4.15;1.40;;;;;;;13.92;30.64;102639.16;5030930;28;20025;-77
2022/04/30 12:12:17;;;;;;;4.38;1.17;;;;;;;14.02;29.89;102626.63;5044774;28;20099;-77